createdAt,value
2023-02-21T00:02:06.589Z,65.78
2023-02-21T00:04:52.677Z,65.93
2023-02-21T00:07:38.054Z,65.88
2023-02-21T00:10:25.456Z,66.10
2023-02-21T00:13:11.069Z,66.09
2023-02-21T00:15:56.650Z,66.20
2023-02-21T00:18:41.756Z,66.69
2023-02-21T00:21:26.900Z,67.49
2023-02-21T00:24:12.148Z,67.59
2023-02-21T00:26:57.758Z,67.54
2023-02-21T00:29:43.546Z,67.01
2023-02-21T00:32:29.053Z,68.55
2023-02-21T00:35:14.615Z,69.46
2023-02-21T00:37:59.992Z,70.13
2023-02-21T00:40:45.201Z,70.82
2023-02-21T00:43:33.764Z,70.06
2023-02-21T00:46:20.681Z,70.18
2023-02-21T00:49:06.199Z,69.90
2023-02-21T00:51:52.620Z,69.83
2023-02-21T00:54:37.820Z,69.97
2023-02-21T00:57:24.404Z,69.72
2023-02-21T01:00:09.784Z,69.57
2023-02-21T01:02:55.267Z,69.31
2023-02-21T01:05:40.469Z,69.46
2023-02-21T01:08:25.904Z,69.23
2023-02-21T01:11:11.496Z,69.37
2023-02-21T01:13:59.456Z,69.55
2023-02-21T01:16:48.400Z,69.63
2023-02-21T01:19:34.389Z,69.70
2023-02-21T01:22:20.169Z,69.39
2023-02-21T01:25:09.267Z,69.68
2023-02-21T01:27:55.512Z,69.67
2023-02-21T01:30:41.046Z,70.02
2023-02-21T01:33:26.602Z,69.98
2023-02-21T01:36:12.114Z,70.19
2023-02-21T01:38:57.492Z,70.32
2023-02-21T01:41:43.484Z,70.32
2023-02-21T01:44:53.784Z,70.31
2023-02-21T01:47:39.922Z,70.48
2023-02-21T01:50:33.659Z,70.25
2023-02-21T01:53:22.355Z,70.41
2023-02-21T01:56:08.460Z,69.89
2023-02-21T01:58:55.054Z,69.70
2023-02-21T02:01:52.663Z,69.54
2023-02-21T02:04:40.660Z,69.40
2023-02-21T02:07:26.787Z,69.47
2023-02-21T02:10:14.125Z,69.61
2023-02-21T02:13:02.458Z,69.61
2023-02-21T02:15:53.444Z,69.52
2023-02-21T02:18:46.251Z,69.55
2023-02-21T02:21:51.483Z,69.72
2023-02-21T02:24:50.708Z,69.74
2023-02-21T02:27:46.907Z,69.79
2023-02-21T02:30:53.681Z,70.15
2023-02-21T02:33:35.365Z,69.95
2023-02-21T02:36:18.114Z,69.78
2023-02-21T02:38:56.110Z,70.02
2023-02-21T02:41:38.003Z,70.13
2023-02-21T02:44:24.114Z,70.12
2023-02-21T02:46:51.972Z,70.08
2023-02-21T02:49:27.384Z,69.88
2023-02-21T02:51:55.085Z,69.63
2023-02-21T02:54:23.352Z,69.68
2023-02-21T02:56:50.503Z,69.59
2023-02-21T02:59:23.182Z,69.39
2023-02-21T03:02:01.258Z,69.33
2023-02-21T03:04:59.372Z,69.24
2023-02-21T03:07:57.865Z,69.29
2023-02-21T03:10:36.909Z,69.15
2023-02-21T03:13:30.670Z,69.17
2023-02-21T03:16:10.389Z,69.29
2023-02-21T03:18:45.242Z,69.35
2023-02-21T03:21:17.603Z,69.54
2023-02-21T03:23:48.895Z,69.36
2023-02-21T03:26:17.553Z,69.49
2023-02-21T03:28:48.810Z,69.40
2023-02-21T03:31:21.224Z,69.37
2023-02-21T03:33:47.960Z,69.46
2023-02-21T03:36:15.464Z,69.46
2023-02-21T03:38:42.325Z,69.31
2023-02-21T03:41:11.493Z,69.49
2023-02-21T03:43:38.744Z,69.37
2023-02-21T03:46:06.012Z,69.35
2023-02-21T03:48:33.086Z,69.32
2023-02-21T03:51:24.108Z,69.31
2023-02-21T03:53:51.043Z,69.13
2023-02-21T03:56:19.498Z,69.22
2023-02-21T03:59:16.103Z,69.30
2023-02-21T04:01:43.345Z,69.46
2023-02-21T04:04:10.718Z,70.25
2023-02-21T04:06:38.038Z,71.39
2023-02-21T04:09:04.848Z,71.38
2023-02-21T04:11:32.073Z,72.10
2023-02-21T04:13:59.162Z,71.99
2023-02-21T04:16:26.050Z,72.18
2023-02-21T04:18:53.597Z,72.15
2023-02-21T04:21:20.679Z,72.14
2023-02-21T04:23:49.658Z,72.24
2023-02-21T04:26:16.752Z,72.25
2023-02-21T04:28:51.531Z,71.63
2023-02-21T04:31:19.201Z,72.19
2023-02-21T04:33:46.028Z,72.37
2023-02-21T04:36:16.659Z,72.24
2023-02-21T04:38:44.608Z,72.05
2023-02-21T04:41:12.145Z,71.98
2023-02-21T04:43:42.255Z,71.82
2023-02-21T04:46:09.349Z,72.02
2023-02-21T04:48:36.317Z,71.96
2023-02-21T04:51:14.770Z,71.80
2023-02-21T04:53:42.902Z,71.72
2023-02-21T04:56:11.047Z,71.66
2023-02-21T04:58:45.390Z,71.43
2023-02-21T05:01:14.315Z,71.40
2023-02-21T05:03:41.374Z,71.35
2023-02-21T05:06:08.173Z,71.52
2023-02-21T05:08:36.875Z,71.94
2023-02-21T05:11:04.125Z,71.91
2023-02-21T05:13:30.751Z,71.47
2023-02-21T05:15:57.482Z,71.32
2023-02-21T05:18:28.856Z,71.24
2023-02-21T05:20:56.117Z,71.08
2023-02-21T05:23:33.897Z,71.47
2023-02-21T05:26:03.522Z,71.37
2023-02-21T05:28:30.572Z,71.53
2023-02-21T05:30:59.155Z,71.91
2023-02-21T05:33:27.638Z,71.67
2023-02-21T05:35:55.205Z,71.59
2023-02-21T05:38:23.860Z,71.58
2023-02-21T05:40:50.987Z,71.59
2023-02-21T05:43:18.705Z,71.44
2023-02-21T05:45:45.501Z,70.85
2023-02-21T05:48:15.593Z,71.10
2023-02-21T05:50:42.311Z,71.71
2023-02-21T05:53:10.483Z,71.86
2023-02-21T05:55:37.965Z,72.05
2023-02-21T05:58:05.045Z,72.21
2023-02-21T06:00:31.750Z,72.16
2023-02-21T06:02:58.460Z,71.85
2023-02-21T06:05:25.627Z,71.46
2023-02-21T06:07:52.706Z,71.26
2023-02-21T06:10:19.874Z,71.16
2023-02-21T06:12:47.075Z,71.09
2023-02-21T06:15:13.832Z,71.22
2023-02-21T06:17:42.737Z,70.94
2023-02-21T06:20:15.113Z,70.92
2023-02-21T06:22:41.760Z,70.88
2023-02-21T06:25:09.190Z,70.74
2023-02-21T06:27:35.864Z,70.54
2023-02-21T06:30:05.635Z,70.90
2023-02-21T06:32:32.598Z,71.36
2023-02-21T06:34:59.221Z,71.63
2023-02-21T06:37:25.877Z,71.73
2023-02-21T06:39:52.510Z,71.59
2023-02-21T06:42:19.699Z,71.45
2023-02-21T06:44:47.609Z,71.29
2023-02-21T06:47:14.938Z,71.19
2023-02-21T06:49:42.362Z,71.12
2023-02-21T06:52:10.227Z,71.23
2023-02-21T06:54:36.905Z,71.42
2023-02-21T06:57:03.811Z,71.58
2023-02-21T06:59:30.425Z,71.44
2023-02-21T07:01:57.737Z,71.48
2023-02-21T07:04:25.609Z,71.21
2023-02-21T07:06:52.826Z,71.29
2023-02-21T07:09:19.781Z,70.97
2023-02-21T07:11:49.140Z,71.13
2023-02-21T07:14:15.929Z,70.94
2023-02-21T07:16:42.531Z,71.13
2023-02-21T07:19:09.187Z,71.14
2023-02-21T07:21:36.440Z,71.49
2023-02-21T07:24:03.295Z,71.26
2023-02-21T07:26:30.075Z,71.27
2023-02-21T07:28:56.930Z,71.30
2023-02-21T07:31:24.096Z,71.03
2023-02-21T07:33:50.891Z,70.63
2023-02-21T07:36:17.568Z,70.88
2023-02-21T07:38:44.188Z,70.64
2023-02-21T07:41:11.089Z,70.54
2023-02-21T07:43:39.335Z,70.83
2023-02-21T07:46:11.664Z,71.01
2023-02-21T07:48:38.757Z,71.18
2023-02-21T07:51:07.792Z,71.07
2023-02-21T07:53:34.914Z,71.26
2023-02-21T07:56:02.664Z,71.00
2023-02-21T07:58:29.565Z,70.74
2023-02-21T08:00:56.149Z,70.77
2023-02-21T08:03:23.705Z,70.75
2023-02-21T08:05:50.408Z,70.55
2023-02-21T08:08:17.338Z,71.28
2023-02-21T08:10:44.299Z,71.43
2023-02-21T08:13:11.052Z,71.36
2023-02-21T08:15:37.649Z,71.01
2023-02-21T08:18:04.330Z,70.36
2023-02-21T08:20:30.935Z,70.23
2023-02-21T08:22:57.864Z,70.53
2023-02-21T08:25:24.466Z,70.13
2023-02-21T08:27:55.294Z,70.03
2023-02-21T08:30:22.522Z,69.61
2023-02-21T08:32:52.254Z,69.37
2023-02-21T08:35:20.183Z,69.25
2023-02-21T08:37:48.912Z,69.12
2023-02-21T08:40:19.128Z,69.40
2023-02-21T08:42:50.482Z,69.90
2023-02-21T08:45:21.570Z,69.47
2023-02-21T08:47:49.195Z,69.34
2023-02-21T08:50:16.143Z,68.99
2023-02-21T08:52:42.818Z,68.65
2023-02-21T08:55:09.536Z,68.13
2023-02-21T08:57:36.264Z,67.35
2023-02-21T09:00:06.018Z,67.37
2023-02-21T09:02:33.021Z,66.70
2023-02-21T09:04:59.992Z,66.66
2023-02-21T09:07:28.630Z,66.06
2023-02-21T09:09:55.407Z,65.87
2023-02-21T09:12:25.222Z,64.75
2023-02-21T09:14:51.823Z,64.47
2023-02-21T09:17:18.506Z,64.54
2023-02-21T09:19:45.238Z,64.59
2023-02-21T09:22:11.979Z,64.95
2023-02-21T09:24:41.149Z,65.13
2023-02-21T09:27:07.838Z,65.97
2023-02-21T09:29:45.818Z,66.17
2023-02-21T09:32:15.865Z,66.52
2023-02-21T09:34:42.502Z,66.53
2023-02-21T09:37:09.125Z,66.85
2023-02-21T09:39:39.522Z,66.74
2023-02-21T09:42:06.522Z,66.43
2023-02-21T09:44:33.281Z,66.07
2023-02-21T09:47:04.348Z,66.23
2023-02-21T09:49:38.975Z,65.67
2023-02-21T09:52:07.703Z,65.65
2023-02-21T09:54:39.056Z,65.09
2023-02-21T09:57:11.729Z,65.05
2023-02-21T09:59:38.299Z,64.70
2023-02-21T10:02:43.834Z,64.33
2023-02-21T10:05:28.090Z,63.88
2023-02-21T10:08:01.796Z,64.29
2023-02-21T10:10:35.793Z,64.07
2023-02-21T10:13:21.072Z,63.63
2023-02-21T10:15:51.716Z,63.07
2023-02-21T10:18:24.386Z,62.85
2023-02-21T10:20:58.027Z,62.62
2023-02-21T10:23:31.665Z,62.42
2023-02-21T10:26:07.654Z,62.47
2023-02-21T10:28:34.471Z,61.88
2023-02-21T10:31:17.003Z,61.42
2023-02-21T10:33:44.307Z,61.28
2023-02-21T10:36:18.708Z,62.00
2023-02-21T10:39:04.063Z,60.87
2023-02-21T10:41:36.536Z,60.14
2023-02-21T10:44:18.758Z,59.74
2023-02-21T10:46:56.160Z,59.89
2023-02-21T10:49:31.643Z,60.24
2023-02-21T10:52:17.042Z,59.79
2023-02-21T10:54:59.990Z,59.80
2023-02-21T10:57:27.687Z,59.11
2023-02-21T10:59:54.835Z,59.21
2023-02-21T11:02:44.880Z,59.38
2023-02-21T11:05:19.458Z,58.75
2023-02-21T11:08:09.322Z,59.65
2023-02-21T11:10:35.885Z,60.38
2023-02-21T11:13:23.012Z,60.28
2023-02-21T11:16:11.011Z,61.25
2023-02-21T11:18:38.274Z,61.06
2023-02-21T11:21:19.849Z,60.81
2023-02-21T11:23:59.070Z,60.73
2023-02-21T11:26:30.841Z,61.23
2023-02-21T11:29:09.211Z,61.49
2023-02-21T11:31:36.386Z,61.64
2023-02-21T11:34:07.056Z,61.49
2023-02-21T11:36:40.287Z,61.61
2023-02-21T11:39:23.608Z,61.89
2023-02-21T11:42:04.021Z,61.83
2023-02-21T11:44:35.580Z,61.57
2023-02-21T11:47:26.733Z,61.48
2023-02-21T11:50:15.978Z,60.84
2023-02-21T11:52:55.520Z,60.54
2023-02-21T11:55:26.490Z,60.95
2023-02-21T11:58:06.937Z,60.75
2023-02-21T12:01:05.721Z,60.60
2023-02-21T12:04:02.596Z,60.82
2023-02-21T12:06:42.107Z,60.86
2023-02-21T12:09:44.034Z,60.72
2023-02-21T12:12:20.513Z,60.65
2023-02-21T12:15:01.192Z,60.90
2023-02-21T12:17:41.225Z,60.30
2023-02-21T12:20:26.986Z,61.03
2023-02-21T12:23:13.772Z,60.39
2023-02-21T12:25:43.283Z,60.45
2023-02-21T12:28:39.968Z,60.15
2023-02-21T12:31:22.610Z,59.99
2023-02-21T12:34:28.617Z,59.33
2023-02-21T12:40:01.024Z,59.55
2023-02-21T12:42:36.944Z,59.26
2023-02-21T12:45:09.249Z,59.11
2023-02-21T12:48:04.352Z,58.64
2023-02-21T12:50:36.119Z,58.68
2023-02-21T12:53:15.589Z,58.64
2023-02-21T12:55:51.815Z,58.22
2023-02-21T12:58:45.077Z,58.09
2023-02-21T13:01:21.086Z,58.50
2023-02-21T13:03:58.319Z,57.75
2023-02-21T13:06:31.716Z,57.73
2023-02-21T13:09:17.270Z,57.93
2023-02-21T13:12:06.897Z,57.68
2023-02-21T13:14:56.128Z,57.52
2023-02-21T13:17:23.300Z,57.51
2023-02-21T13:20:09.423Z,57.18
2023-02-21T13:23:33.078Z,56.55
2023-02-21T13:26:24.186Z,57.14
2023-02-21T13:28:55.150Z,56.44
2023-02-21T13:31:26.117Z,55.61
2023-02-21T13:33:59.660Z,56.14
2023-02-21T13:36:32.556Z,55.99
2023-02-21T13:39:22.045Z,55.94
2023-02-21T13:41:58.349Z,56.69
2023-02-21T13:44:40.504Z,57.65
2023-02-21T13:47:13.620Z,58.06
2023-02-21T13:49:48.574Z,58.04
2023-02-21T13:52:22.506Z,58.09
2023-02-21T13:55:22.685Z,58.31
2023-02-21T13:57:58.527Z,58.18
2023-02-21T14:00:25.073Z,58.50
2023-02-21T14:03:00.664Z,58.39
2023-02-21T14:05:47.904Z,58.44
2023-02-21T14:08:26.324Z,58.64
2023-02-21T14:11:15.216Z,59.03
2023-02-21T14:14:04.352Z,58.94
2023-02-21T14:16:46.758Z,59.66
2023-02-21T14:19:26.339Z,60.05
2023-02-21T14:22:11.963Z,60.03
2023-02-21T14:24:44.523Z,60.41
2023-02-21T14:30:02.818Z,60.58
2023-02-21T14:32:37.984Z,60.25
2023-02-21T14:35:24.168Z,60.51
2023-02-21T14:38:02.441Z,61.10
2023-02-21T14:40:35.015Z,61.50
2023-02-21T14:43:32.046Z,61.01
2023-02-21T14:46:07.278Z,61.29
2023-02-21T14:48:55.533Z,61.64
2023-02-21T14:51:52.425Z,61.45
2023-02-21T14:54:38.768Z,61.58
2023-02-21T14:57:39.810Z,62.12
2023-02-21T15:00:15.689Z,62.41
2023-02-21T15:03:01.272Z,62.55
2023-02-21T15:05:33.885Z,63.02
2023-02-21T15:08:20.157Z,62.73
2023-02-21T15:10:49.258Z,62.60
2023-02-21T15:13:29.346Z,62.76
2023-02-21T15:16:02.996Z,62.14
2023-02-21T15:18:54.256Z,62.48
2023-02-21T15:21:20.972Z,62.56
2023-02-21T15:24:00.028Z,62.78
2023-02-21T15:26:31.172Z,62.74
2023-02-21T15:29:16.227Z,62.91
2023-02-21T15:31:55.573Z,62.91
2023-02-21T15:34:35.205Z,62.64
2023-02-21T15:37:22.417Z,62.60
2023-02-21T15:40:05.621Z,62.65
2023-02-21T15:42:35.189Z,62.68
2023-02-21T15:45:16.794Z,62.61
2023-02-21T15:47:44.009Z,62.53
2023-02-21T15:50:17.472Z,62.40
2023-02-21T15:52:48.870Z,62.44
2023-02-21T15:55:18.522Z,62.36
2023-02-21T15:58:04.076Z,62.57
2023-02-21T16:00:48.221Z,62.34
2023-02-21T16:03:33.884Z,62.46
2023-02-21T16:06:19.159Z,62.29
2023-02-21T16:09:24.459Z,62.19
2023-02-21T16:12:03.258Z,62.27
2023-02-21T16:14:41.672Z,62.48
2023-02-21T16:17:42.150Z,62.47
2023-02-21T16:20:17.126Z,62.42
2023-02-21T16:25:54.690Z,62.38
2023-02-21T16:28:21.784Z,62.44
2023-02-21T16:30:49.225Z,62.37
2023-02-21T16:33:16.051Z,62.52
2023-02-21T16:35:43.430Z,62.64
2023-02-21T16:38:14.864Z,62.73
2023-02-21T16:40:41.754Z,62.87
2023-02-21T16:43:17.463Z,62.78
2023-02-21T16:45:44.611Z,62.61
2023-02-21T16:48:17.949Z,62.59
2023-02-21T16:50:45.865Z,62.54
2023-02-21T16:53:13.130Z,62.48
2023-02-21T16:55:39.936Z,62.40
2023-02-21T16:58:15.712Z,62.41
2023-02-21T17:00:45.476Z,62.29
2023-02-21T17:03:12.086Z,62.18
2023-02-21T17:05:38.690Z,62.20
2023-02-21T17:08:05.320Z,62.17
2023-02-21T17:10:32.827Z,62.26
2023-02-21T17:13:01.653Z,62.17
2023-02-21T17:15:28.235Z,62.04
2023-02-21T17:17:55.135Z,62.17
2023-02-21T17:20:23.643Z,62.15
2023-02-21T17:22:51.569Z,62.14
2023-02-21T17:25:20.284Z,62.28
2023-02-21T17:27:50.628Z,62.28
2023-02-21T17:30:20.717Z,62.26
2023-02-21T17:32:47.537Z,62.53
2023-02-21T17:35:15.458Z,62.59
2023-02-21T17:37:43.617Z,62.67
2023-02-21T17:40:11.719Z,62.81
2023-02-21T17:42:39.988Z,62.84
2023-02-21T17:45:07.285Z,62.79
2023-02-21T17:47:35.388Z,62.75
2023-02-21T17:50:03.919Z,62.81
2023-02-21T17:52:32.017Z,62.82
2023-02-21T17:54:58.797Z,62.81
2023-02-21T17:57:25.557Z,62.93
2023-02-21T17:59:52.281Z,63.07
2023-02-21T18:02:21.852Z,63.14
2023-02-21T18:04:49.925Z,63.18
2023-02-21T18:07:16.776Z,63.28
2023-02-21T18:09:47.036Z,63.39
2023-02-21T18:12:13.664Z,63.39
2023-02-21T18:14:40.307Z,63.58
2023-02-21T18:17:06.892Z,63.53
2023-02-21T18:19:33.572Z,63.62
2023-02-21T18:22:05.332Z,63.63
2023-02-21T18:24:31.963Z,63.76
2023-02-21T18:26:58.636Z,63.92
2023-02-21T18:29:25.241Z,63.98
2023-02-21T18:31:54.741Z,63.92
2023-02-21T18:34:22.002Z,64.20
2023-02-21T18:36:53.616Z,64.38
2023-02-21T18:39:23.104Z,64.48
2023-02-21T18:41:50.312Z,64.67
2023-02-21T18:44:17.236Z,64.70
2023-02-21T18:46:54.375Z,64.58
2023-02-21T18:49:25.163Z,64.62
2023-02-21T18:51:52.830Z,64.65
2023-02-21T18:54:20.893Z,64.67
2023-02-21T18:56:50.117Z,64.43
2023-02-21T18:59:18.853Z,64.50
2023-02-21T19:01:53.341Z,64.49
2023-02-21T19:04:20.285Z,64.49
2023-02-21T19:06:47.058Z,64.48
2023-02-21T19:09:14.256Z,64.58
2023-02-21T19:11:40.850Z,64.56
2023-02-21T19:14:07.544Z,64.65
2023-02-21T19:16:34.911Z,64.63
2023-02-21T19:19:03.591Z,64.49
2023-02-21T19:21:31.307Z,64.72
2023-02-21T19:23:58.360Z,64.80
2023-02-21T19:26:28.388Z,64.88
2023-02-21T19:28:55.602Z,64.94
2023-02-21T19:31:24.695Z,65.01
2023-02-21T19:33:51.546Z,65.18
2023-02-21T19:36:21.392Z,65.15
2023-02-21T19:38:48.537Z,65.31
2023-02-21T19:41:18.089Z,65.29
2023-02-21T19:43:44.884Z,65.15
2023-02-21T19:46:24.152Z,65.22
2023-02-21T19:48:54.698Z,66.25
2023-02-21T19:51:23.870Z,66.61
2023-02-21T19:53:51.010Z,66.75
2023-02-21T19:56:17.911Z,66.45
2023-02-21T19:58:45.489Z,66.72
2023-02-21T20:01:12.195Z,67.11
2023-02-21T20:03:40.945Z,66.85
2023-02-21T20:06:07.899Z,66.96
2023-02-21T20:08:34.635Z,66.95
2023-02-21T20:11:01.202Z,67.18
2023-02-21T20:13:27.837Z,67.18
2023-02-21T20:15:54.504Z,66.78
2023-02-21T20:18:21.309Z,66.70
2023-02-21T20:20:50.498Z,66.96
2023-02-21T20:23:19.598Z,67.23
2023-02-21T20:25:47.464Z,66.81
2023-02-21T20:28:17.254Z,66.62
2023-02-21T20:30:44.335Z,66.36
2023-02-21T20:33:12.841Z,66.31
2023-02-21T20:35:41.098Z,66.37
2023-02-21T20:38:12.922Z,66.43
2023-02-21T20:40:40.418Z,66.36
2023-02-21T20:43:07.563Z,66.11
2023-02-21T20:45:35.430Z,65.93
2023-02-21T20:48:02.253Z,65.72
2023-02-21T20:50:33.027Z,65.64
2023-02-21T20:52:59.756Z,65.44
2023-02-21T20:55:28.549Z,65.49
2023-02-21T20:57:55.705Z,65.53
2023-02-21T21:00:26.024Z,65.44
2023-02-21T21:02:55.156Z,65.64
2023-02-21T21:05:22.684Z,65.64
2023-02-21T21:07:49.817Z,65.66
2023-02-21T21:10:16.588Z,65.80
2023-02-21T21:12:43.944Z,65.88
2023-02-21T21:15:12.525Z,65.82
2023-02-21T21:17:41.872Z,65.56
2023-02-21T21:20:16.654Z,66.02
2023-02-21T21:22:47.147Z,66.26
2023-02-21T21:25:18.263Z,66.32
2023-02-21T21:27:45.469Z,66.32
2023-02-21T21:30:24.047Z,66.45
2023-02-21T21:32:54.700Z,66.41
2023-02-21T21:35:22.162Z,66.81
2023-02-21T21:37:48.941Z,67.45
2023-02-21T21:40:18.754Z,67.42
2023-02-21T21:42:49.034Z,67.27
2023-02-21T21:45:28.532Z,67.25
2023-02-21T21:48:00.250Z,66.89
2023-02-21T21:50:27.205Z,66.84
2023-02-21T21:52:58.552Z,66.91
2023-02-21T21:55:29.339Z,66.78
2023-02-21T21:57:58.865Z,66.90
2023-02-21T22:00:28.106Z,67.36
2023-02-21T22:03:02.193Z,67.39
2023-02-21T22:05:31.611Z,67.38
2023-02-21T22:07:59.201Z,66.71
2023-02-21T22:10:27.232Z,66.80
2023-02-21T22:12:56.736Z,66.55
2023-02-21T22:15:26.594Z,67.14
2023-02-21T22:17:53.927Z,67.29
2023-02-21T22:20:28.495Z,67.34
2023-02-21T22:22:59.368Z,67.45
2023-02-21T22:25:30.247Z,67.69
2023-02-21T22:28:02.568Z,67.77
2023-02-21T22:30:29.314Z,67.75
2023-02-21T22:32:56.111Z,67.89
2023-02-21T22:35:22.857Z,67.68
2023-02-21T22:37:55.301Z,67.65
2023-02-21T22:40:26.905Z,67.55
2023-02-21T22:42:56.092Z,67.52
2023-02-21T22:45:24.613Z,67.45
2023-02-21T22:47:53.942Z,67.34
2023-02-21T22:50:22.698Z,67.45
2023-02-21T22:52:56.816Z,67.25
2023-02-21T22:55:25.249Z,67.30
2023-02-21T22:57:53.432Z,67.51
2023-02-21T23:00:24.983Z,67.45
2023-02-21T23:02:52.753Z,67.48
2023-02-21T23:05:24.234Z,67.71
2023-02-21T23:07:53.619Z,67.50
2023-02-21T23:10:25.732Z,67.56
2023-02-21T23:12:55.446Z,67.58
2023-02-21T23:15:22.568Z,67.43
2023-02-21T23:17:55.556Z,67.62
2023-02-21T23:20:29.859Z,67.56
2023-02-21T23:22:58.924Z,67.71
2023-02-21T23:25:35.157Z,67.76
2023-02-21T23:28:05.515Z,67.54
2023-02-21T23:30:41.136Z,67.69
2023-02-21T23:33:07.914Z,67.83
2023-02-21T23:35:35.392Z,67.88
2023-02-21T23:38:03.055Z,67.65
2023-02-21T23:40:32.672Z,67.58
2023-02-21T23:43:01.022Z,67.75
2023-02-21T23:45:27.637Z,67.92
2023-02-21T23:47:55.694Z,67.99
2023-02-21T23:50:30.574Z,68.11
2023-02-21T23:53:02.596Z,68.15
2023-02-21T23:55:30.331Z,68.04
2023-02-21T23:58:00.027Z,68.12
